Airport ID:K0A0
Update Time (UTC):19/09/2021 17:10
Wind Speed (Knots):8
Wind Direction (Magnetic):140
Temperature (°C):29.3
Dew Point (°C):6.9
Humidity (%):24.7
Altimeter (inHg):30.12
Density Altitude (Feet):07200
Visibility (Miles):10
Clouds (Hundreds of feet):CLR
Present Weather:
METAR:METAR K0A0 191710Z AUTO 14009KT 10SM CLR 29/07 A3012 RMK AO2

The data displayed is for advisory purposes only and is not to be used for flight planning or operations.